Airport View

Enter AWOS ICAO identifier for current METAR.

ex. KFNL

20 Oct 2020 22:59

TAF KBIF 202109Z 2022/2204 VRB06KT 9999 SKC QNH2992INS BECMG 2102/2103 16009KT 9999 SKC QNH3000INS BECMG 2117/2118 20009KT 9999 SKC QNH3004INS BECMG 2203/2204 VRB06KT 9999 SKC QNH2993INS TX30/2122Z TN07/2112Z